New London, Minnesota
Current Conditions -  °F | °C
As of 11:34 PM on Sunday 21 Dec 2014 (Local Time) from KPEX Reporting Station
Drizzle Drizzle  
Wind Chill: 25°   Ceiling: 300
Heat Index: 33°   Visibility: 3mi
Dew Point: 33°   Wind: 9mph
Humidity: 100%   Direction: 100°E
Pressure: 29.64"   Gusts: NA
Location:  45.3°N, 94.94°W
Report Text: KPEX 220534Z AUTO 10008KT 3SM -DZ OVC003 01/01 A2964 RMK AO2 T00050005
Loading
Personal Weather Stations






























Interactive Weather Map New forecast layout! Learn more

10-Day Weather Forecast

Advertisements
Track Severe Weather on mobile